Time;durP1;ratioP1;P1;durP2;ratioP2;P2;SDS_P1;SDS_P2;PMS_P1;PMS_P2;Temp;Humidity;BMP_temperature;BMP_pressure;BME280_temperature;BME280_humidity;BME280_pressure;Samples;Min_cycle;Max_cycle;Signal;HPM_P1;HPM_P2
2023/12/28 00:00:05;;;;;;;4.50;3.22;;;8.70;99.90;;;;;;4836828;29;20408;-79
2023/12/28 00:02:33;;;;;;;6.00;3.50;;;8.60;99.90;;;;;;4823045;29;20090;-80
2023/12/28 00:04:58;;;;;;;5.53;3.55;;;8.70;99.90;;;;;;4831868;29;20413;-80
2023/12/28 00:07:24;;;;;;;4.22;3.35;;;9.10;99.90;;;;;;4827179;29;20050;-80
2023/12/28 00:09:50;;;;;;;4.28;3.05;;;8.90;99.90;;;;;;4837580;29;20478;-80
2023/12/28 00:12:15;;;;;;;6.03;3.47;;;8.70;99.90;;;;;;4836395;29;20058;-80
2023/12/28 00:14:41;;;;;;;5.47;3.45;;;8.80;99.90;;;;;;4835711;29;20107;-80
2023/12/28 00:17:06;;;;;;;4.00;3.60;;;8.80;99.90;;;;;;4831762;29;20042;-80
2023/12/28 00:19:32;;;;;;;6.80;3.30;;;8.80;99.90;;;;;;4836344;29;20064;-80
2023/12/28 00:21:58;;;;;;;4.75;3.28;;;8.90;99.90;;;;;;4828410;29;20050;-80
2023/12/28 00:24:23;;;;;;;5.95;3.65;;;8.90;99.90;;;;;;4836124;29;20072;-80
2023/12/28 00:26:49;;;;;;;4.70;3.78;;;8.90;99.90;;;;;;4837407;29;20057;-80
2023/12/28 00:29:14;;;;;;;4.88;3.88;;;8.90;99.90;;;;;;4826289;29;20141;-80
2023/12/28 00:31:40;;;;;;;4.57;3.65;;;9.00;99.90;;;;;;4835897;29;20054;-80
2023/12/28 00:34:06;;;;;;;8.68;4.80;;;9.00;99.90;;;;;;4826600;29;20057;-81
2023/12/28 00:36:31;;;;;;;6.07;3.67;;;8.80;99.90;;;;;;4837119;29;20137;-80
2023/12/28 00:38:57;;;;;;;5.50;3.97;;;9.00;99.90;;;;;;4837233;29;20045;-80
2023/12/28 00:41:22;;;;;;;5.55;3.60;;;8.90;99.90;;;;;;4835306;29;20046;-80
2023/12/28 00:43:48;;;;;;;5.03;3.97;;;8.90;99.90;;;;;;4835992;29;20144;-80
2023/12/28 00:46:14;;;;;;;5.65;4.05;;;8.90;99.90;;;;;;4836657;29;20058;-80
2023/12/28 00:48:41;;;;;;;8.60;3.58;;;8.90;99.90;;;;;;4836107;29;20045;-80
2023/12/28 00:51:07;;;;;;;6.90;3.97;;;8.90;99.90;;;;;;4833646;29;20129;-80
2023/12/28 00:53:33;;;;;;;5.40;4.15;;;8.90;99.90;;;;;;4835737;29;20165;-80
2023/12/28 00:55:58;;;;;;;6.85;4.00;;;9.00;99.90;;;;;;4837153;29;20053;-80
2023/12/28 00:58:24;;;;;;;5.30;3.88;;;9.00;99.90;;;;;;4836409;29;20054;-80
2023/12/28 01:00:53;;;;;;;6.80;4.07;;;8.90;99.90;;;;;;4834319;29;20053;-80
2023/12/28 01:03:19;;;;;;;6.75;3.72;;;8.90;99.90;;;;;;4836672;29;20057;-80
2023/12/28 01:05:47;;;;;;;6.25;3.97;;;9.00;99.90;;;;;;4837381;29;20049;-80
2023/12/28 01:08:13;;;;;;;5.72;4.18;;;8.90;99.90;;;;;;4820747;29;20169;-80
2023/12/28 01:10:38;;;;;;;4.80;3.38;;;8.90;99.90;;;;;;4836583;29;20473;-80
2023/12/28 01:13:04;;;;;;;5.85;3.47;;;8.90;99.90;;;;;;4836639;29;20068;-80
2023/12/28 01:15:29;;;;;;;6.60;3.85;;;8.80;99.90;;;;;;4835958;29;20053;-81
2023/12/28 01:17:55;;;;;;;5.00;3.42;;;8.80;99.90;;;;;;4835754;29;20404;-80
2023/12/28 01:20:20;;;;;;;4.28;3.30;;;8.80;99.90;;;;;;4851276;29;20046;-80
2023/12/28 01:22:46;;;;;;;5.82;3.70;;;8.80;99.90;;;;;;4834958;29;20109;-80
2023/12/28 01:25:12;;;;;;;5.97;3.63;;;8.80;99.90;;;;;;4825868;29;20046;-80
2023/12/28 01:27:38;;;;;;;5.10;3.67;;;8.70;99.90;;;;;;4848026;29;20059;-80
2023/12/28 01:30:04;;;;;;;7.10;4.00;;;8.70;99.90;;;;;;4829021;29;20041;-80
2023/12/28 01:32:30;;;;;;;6.95;4.03;;;8.70;99.90;;;;;;4826235;29;20086;-80
2023/12/28 01:34:55;;;;;;;5.75;3.80;;;8.60;99.90;;;;;;4834735;29;20096;-80
2023/12/28 01:37:22;;;;;;;5.80;3.80;;;8.60;99.90;;;;;;4835868;29;20064;-80
2023/12/28 01:39:47;;;;;;;6.22;3.85;;;8.60;99.90;;;;;;4835068;29;20053;-80
2023/12/28 01:42:13;;;;;;;7.55;4.03;;;8.60;99.90;;;;;;4835687;29;20069;-80
2023/12/28 01:44:38;;;;;;;6.40;4.35;;;8.60;99.90;;;;;;4835851;29;20046;-80
2023/12/28 01:47:04;;;;;;;7.82;3.78;;;8.50;99.90;;;;;;4834925;29;20046;-80
2023/12/28 01:49:30;;;;;;;6.07;4.05;;;8.50;99.90;;;;;;4836113;29;20501;-80
2023/12/28 01:51:56;;;;;;;7.57;3.90;;;8.50;99.90;;;;;;4836336;29;20057;-80
2023/12/28 01:54:22;;;;;;;6.70;4.43;;;8.50;99.90;;;;;;4834787;29;20064;-80
2023/12/28 01:56:49;;;;;;;7.10;3.95;;;8.50;99.90;;;;;;4836367;29;20062;-80
2023/12/28 01:59:15;;;;;;;8.02;4.30;;;8.80;99.90;;;;;;4834652;29;20046;-80
2023/12/28 02:01:41;;;;;;;4.53;3.75;;;8.50;99.90;;;;;;4835258;29;20042;-80
2023/12/28 02:04:07;;;;;;;8.10;4.20;;;8.50;99.90;;;;;;4835373;29;20057;-80
2023/12/28 02:06:33;;;;;;;7.00;3.95;;;8.50;99.90;;;;;;4834479;29;20905;-80
2023/12/28 02:08:58;;;;;;;5.00;3.92;;;8.60;99.90;;;;;;4834971;29;20145;-80
2023/12/28 02:11:24;;;;;;;7.82;3.65;;;8.60;99.90;;;;;;4834755;29;20050;-80
2023/12/28 02:13:50;;;;;;;9.23;3.80;;;8.60;99.90;;;;;;4835727;29;20089;-80
2023/12/28 02:16:32;;;;;;;8.02;3.92;;;8.60;99.90;;;;;;4835675;29;20120;-80
2023/12/28 02:19:03;;;;;;;11.15;3.90;;;8.70;99.90;;;;;;4835384;29;20058;-80
2023/12/28 02:21:31;;;;;;;6.95;3.38;;;8.60;99.90;;;;;;4832805;29;20046;-80
2023/12/28 02:23:56;;;;;;;8.13;3.38;;;8.80;99.90;;;;;;4823984;29;20085;-80
2023/12/28 02:26:22;;;;;;;9.85;3.38;;;8.80;99.90;;;;;;4832862;29;20050;-80
2023/12/28 02:28:48;;;;;;;6.43;3.65;;;8.90;99.90;;;;;;4834621;29;20053;-80
2023/12/28 02:31:36;;;;;;;7.22;3.50;;;8.90;99.90;;;;;;4840595;29;20060;-80
2023/12/28 02:34:11;;;;;;;7.80;3.08;;;8.90;99.90;;;;;;4834508;29;20084;-81
2023/12/28 02:36:41;;;;;;;12.38;3.60;;;8.90;99.90;;;;;;4832377;29;20089;-80
2023/12/28 02:39:08;;;;;;;9.98;3.28;;;8.90;99.90;;;;;;4839860;29;20050;-80
2023/12/28 02:41:34;;;;;;;8.68;3.60;;;8.90;99.90;;;;;;4838016;29;20477;-80
2023/12/28 02:43:59;;;;;;;8.80;3.30;;;9.00;99.90;;;;;;4837973;29;20083;-80
2023/12/28 02:46:25;;;;;;;5.65;3.20;;;9.00;99.90;;;;;;4839490;29;20165;-80
2023/12/28 02:48:52;;;;;;;7.82;2.95;;;9.10;99.90;;;;;;4838687;29;20400;-81
2023/12/28 02:51:18;;;;;;;7.95;3.30;;;9.10;99.90;;;;;;4837820;29;20172;-80
2023/12/28 02:53:43;;;;;;;7.28;3.15;;;9.20;99.90;;;;;;4837706;29;20133;-81
2023/12/28 02:56:09;;;;;;;11.05;3.50;;;9.20;99.90;;;;;;4837823;29;20046;-80
2023/12/28 02:58:34;;;;;;;7.10;3.03;;;9.30;99.90;;;;;;4838985;29;20077;-80
2023/12/28 03:01:00;;;;;;;10.25;3.00;;;9.40;99.90;;;;;;4837544;29;20138;-80
2023/12/28 03:03:26;;;;;;;7.38;3.10;;;9.40;99.90;;;;;;4836093;29;20057;-80
2023/12/28 03:05:51;;;;;;;9.27;2.75;;;9.40;99.90;;;;;;4839452;29;20060;-80
2023/12/28 03:08:17;;;;;;;5.97;2.80;;;9.40;99.90;;;;;;4834408;29;20059;-80
2023/12/28 03:10:42;;;;;;;7.07;2.97;;;9.50;99.90;;;;;;4843689;29;20053;-80
2023/12/28 03:13:08;;;;;;;6.53;3.10;;;9.50;99.90;;;;;;4852913;29;20129;-80
2023/12/28 03:15:34;;;;;;;5.60;3.03;;;9.50;99.90;;;;;;4838300;29;20042;-80
2023/12/28 03:17:59;;;;;;;7.03;3.28;;;9.50;99.90;;;;;;4838621;29;20092;-81
2023/12/28 03:20:26;;;;;;;5.78;2.90;;;9.50;99.90;;;;;;4837419;29;20169;-80
2023/12/28 03:22:52;;;;;;;9.65;3.50;;;9.50;99.90;;;;;;4834073;29;20054;-79
2023/12/28 03:25:17;;;;;;;10.55;3.22;;;9.50;99.90;;;;;;4819957;29;20050;-80
2023/12/28 03:27:43;;;;;;;8.68;3.30;;;9.60;99.90;;;;;;4829363;29;20050;-80
2023/12/28 03:30:09;;;;;;;7.35;3.08;;;9.50;99.90;;;;;;4836867;29;20068;-80
2023/12/28 03:32:35;;;;;;;8.85;3.35;;;9.50;99.90;;;;;;4833101;29;20050;-79
2023/12/28 03:35:01;;;;;;;7.75;3.15;;;9.40;99.90;;;;;;4822197;29;20069;-80
2023/12/28 03:37:26;;;;;;;5.68;2.85;;;9.50;99.90;;;;;;4838086;29;20434;-81
2023/12/28 03:39:52;;;;;;;7.35;3.15;;;9.60;99.90;;;;;;4837136;29;20056;-80
2023/12/28 03:42:17;;;;;;;4.72;2.75;;;9.60;99.90;;;;;;4836802;29;20049;-81
2023/12/28 03:44:43;;;;;;;8.25;2.88;;;9.60;99.90;;;;;;4836724;29;20046;-80
2023/12/28 03:47:09;;;;;;;5.50;2.63;;;9.60;99.90;;;;;;4837908;29;20054;-81
2023/12/28 03:49:34;;;;;;;6.88;2.53;;;9.60;99.90;;;;;;4836771;29;20049;-81
2023/12/28 03:52:00;;;;;;;5.55;2.97;;;9.70;99.90;;;;;;4836385;29;20082;-81
2023/12/28 03:54:25;;;;;;;6.50;3.00;;;10.20;99.90;;;;;;4837731;29;20523;-80
2023/12/28 03:56:51;;;;;;;10.57;2.97;;;9.70;99.90;;;;;;4836573;29;20061;-80
2023/12/28 03:59:16;;;;;;;7.95;2.83;;;9.70;99.90;;;;;;4836566;29;20425;-81
2023/12/28 04:01:42;;;;;;;9.13;2.45;;;9.70;99.90;;;;;;4837488;29;20114;-80
2023/12/28 04:04:08;;;;;;;8.32;2.70;;;9.70;99.90;;;;;;4836797;29;20049;-81
2023/12/28 04:06:34;;;;;;;8.30;3.20;;;9.70;99.90;;;;;;4837340;29;20060;-81
2023/12/28 04:09:00;;;;;;;7.90;2.50;;;9.70;99.90;;;;;;4836466;29;20106;-80
2023/12/28 04:11:25;;;;;;;7.03;2.20;;;9.60;99.90;;;;;;4837811;29;20475;-81
2023/12/28 04:13:51;;;;;;;9.02;2.70;;;9.60;99.90;;;;;;4836326;29;20053;-80
2023/12/28 04:16:17;;;;;;;6.40;2.75;;;9.70;99.90;;;;;;4836074;29;20125;-81
2023/12/28 04:18:43;;;;;;;9.52;2.90;;;9.70;99.90;;;;;;4821244;29;20053;-80
2023/12/28 04:21:10;;;;;;;7.43;3.22;;;9.70;99.90;;;;;;4837143;29;20133;-80
2023/12/28 04:23:36;;;;;;;7.13;2.42;;;9.80;99.90;;;;;;4831015;29;20047;-81
2023/12/28 04:26:02;;;;;;;6.57;2.70;;;9.80;99.90;;;;;;4828122;29;20050;-80
2023/12/28 04:28:28;;;;;;;7.18;2.40;;;9.80;99.90;;;;;;4824265;29;20460;-80
2023/12/28 04:30:54;;;;;;;9.30;2.58;;;9.80;99.90;;;;;;4836885;29;20053;-80
2023/12/28 04:33:19;;;;;;;10.07;2.80;;;9.80;99.90;;;;;;4836243;29;20042;-81
2023/12/28 04:35:45;;;;;;;6.00;2.35;;;9.80;99.90;;;;;;4837525;29;20523;-80
2023/12/28 04:38:11;;;;;;;7.05;2.80;;;9.70;99.90;;;;;;4836288;29;20072;-80
2023/12/28 04:40:37;;;;;;;7.60;2.80;;;9.90;99.90;;;;;;4838265;29;20046;-80
2023/12/28 04:43:02;;;;;;;9.77;2.40;;;10.00;99.90;;;;;;4835839;29;20053;-80
2023/12/28 04:45:28;;;;;;;10.27;2.90;;;9.70;99.90;;;;;;4836158;29;20061;-81
2023/12/28 04:47:54;;;;;;;8.70;3.03;;;9.70;99.90;;;;;;4836210;29;20157;-80
2023/12/28 04:50:19;;;;;;;8.52;2.45;;;9.80;99.90;;;;;;4840237;29;20131;-82
2023/12/28 04:52:45;;;;;;;9.43;3.15;;;9.80;99.90;;;;;;4848257;29;20417;-81
2023/12/28 04:55:11;;;;;;;10.18;2.75;;;9.80;99.90;;;;;;4846857;29;20042;-80
2023/12/28 04:57:36;;;;;;;8.88;2.60;;;9.90;99.90;;;;;;4848735;29;20057;-80
2023/12/28 05:00:03;;;;;;;5.90;2.15;;;9.90;99.90;;;;;;4835340;29;20489;-81
2023/12/28 05:02:28;;;;;;;9.35;2.42;;;10.00;99.90;;;;;;4817913;29;20065;-79
2023/12/28 05:04:54;;;;;;;15.02;3.00;;;10.20;99.90;;;;;;4833813;29;20165;-81
2023/12/28 05:07:19;;;;;;;9.98;2.38;;;10.00;99.90;;;;;;4829640;29;20417;-81
2023/12/28 05:09:45;;;;;;;7.68;2.33;;;11.00;99.90;;;;;;4835284;29;20417;-80
2023/12/28 05:12:11;;;;;;;9.95;2.60;;;10.00;99.90;;;;;;4836082;29;20073;-81
2023/12/28 05:14:36;;;;;;;11.68;2.78;;;10.10;99.90;;;;;;4836571;29;20157;-80
2023/12/28 05:17:02;;;;;;;13.45;3.22;;;10.20;99.90;;;;;;4835903;29;20041;-79
2023/12/28 05:19:28;;;;;;;8.27;2.33;;;10.20;99.90;;;;;;4836396;29;21046;-81
2023/12/28 05:21:53;;;;;;;10.68;2.60;;;10.20;99.90;;;;;;4835029;29;20052;-80
2023/12/28 05:24:19;;;;;;;8.95;2.55;;;10.20;99.90;;;;;;4834441;29;20118;-80
2023/12/28 05:26:44;;;;;;;12.32;2.78;;;10.20;99.90;;;;;;4835212;29;20061;-80
2023/12/28 05:29:10;;;;;;;8.68;2.75;;;10.30;99.90;;;;;;4835285;29;21454;-80
2023/12/28 05:31:36;;;;;;;11.57;2.65;;;10.30;99.90;;;;;;4835864;29;20054;-80
2023/12/28 05:34:02;;;;;;;11.68;2.78;;;10.30;99.90;;;;;;4835086;29;20046;-80
2023/12/28 05:36:27;;;;;;;11.73;2.17;;;10.30;99.90;;;;;;4835620;29;20054;-80
2023/12/28 05:38:53;;;;;;;11.00;2.53;;;10.30;99.90;;;;;;4829565;29;20378;-81
2023/12/28 05:41:18;;;;;;;10.98;2.80;;;10.50;99.90;;;;;;4826812;29;20132;-81
2023/12/28 05:43:44;;;;;;;9.25;2.30;;;10.40;99.90;;;;;;4824230;29;20524;-80
2023/12/28 05:46:09;;;;;;;10.63;2.50;;;10.40;99.90;;;;;;4834811;29;20102;-80
2023/12/28 05:48:35;;;;;;;7.85;2.28;;;10.40;99.90;;;;;;4835406;29;20054;-81
2023/12/28 05:51:01;;;;;;;10.80;2.75;;;10.30;99.90;;;;;;4835983;29;20050;-80
2023/12/28 05:53:27;;;;;;;10.57;2.65;;;10.30;99.90;;;;;;4836204;29;20050;-81
2023/12/28 05:55:53;;;;;;;10.98;2.92;;;10.40;99.90;;;;;;4835017;29;20081;-80
2023/12/28 05:58:19;;;;;;;8.52;2.20;;;10.40;99.90;;;;;;4833623;29;20052;-80
2023/12/28 06:00:47;;;;;;;9.48;2.38;;;10.40;99.90;;;;;;4835868;29;20046;-80
2023/12/28 06:03:13;;;;;;;8.93;2.28;;;10.40;99.90;;;;;;4834887;29;20417;-80
2023/12/28 06:05:39;;;;;;;8.25;2.33;;;10.40;99.90;;;;;;4835912;29;20046;-80
2023/12/28 06:08:04;;;;;;;12.93;3.05;;;10.40;99.90;;;;;;4834426;29;20050;-80
2023/12/28 06:10:30;;;;;;;16.52;3.92;;;10.30;99.90;;;;;;4832486;29;20050;-80
2023/12/28 06:12:56;;;;;;;10.27;2.67;;;10.30;99.90;;;;;;4830242;29;20039;-80
2023/12/28 06:15:22;;;;;;;9.80;2.17;;;10.30;99.90;;;;;;4840703;29;20073;-81
2023/12/28 06:17:47;;;;;;;7.75;2.40;;;10.40;99.90;;;;;;4823194;29;20038;-80
2023/12/28 06:20:13;;;;;;;11.75;2.85;;;10.40;99.90;;;;;;4850648;29;20050;-80
2023/12/28 06:22:39;;;;;;;10.48;2.67;;;10.50;99.90;;;;;;4821172;29;20054;-80
2023/12/28 06:25:06;;;;;;;12.82;3.45;;;10.50;99.90;;;;;;4834543;29;20155;-80
2023/12/28 06:27:32;;;;;;;7.75;3.05;;;10.40;99.90;;;;;;4839467;29;20053;-81
2023/12/28 06:29:58;;;;;;;10.70;2.65;;;10.40;99.90;;;;;;4838034;29;20062;-81
2023/12/28 06:32:23;;;;;;;11.45;2.83;;;10.40;99.90;;;;;;4838996;29;20050;-81
2023/12/28 06:34:49;;;;;;;12.18;2.50;;;10.40;99.90;;;;;;4838479;29;20061;-81
2023/12/28 06:37:15;;;;;;;8.77;3.13;;;10.90;99.90;;;;;;4837995;29;20062;-81
2023/12/28 06:39:41;;;;;;;9.55;2.92;;;10.50;99.90;;;;;;4837692;29;20511;-81
2023/12/28 06:42:06;;;;;;;12.57;2.78;;;10.60;99.90;;;;;;4837810;29;20050;-81
2023/12/28 06:44:32;;;;;;;10.90;2.65;;;10.40;99.90;;;;;;4838749;29;20125;-81
2023/12/28 06:46:58;;;;;;;10.07;3.03;;;11.20;99.90;;;;;;4836686;29;20666;-82
2023/12/28 06:49:25;;;;;;;12.20;3.42;;;10.40;99.90;;;;;;4838317;29;20085;-81
2023/12/28 06:51:51;;;;;;;12.05;2.70;;;10.40;99.90;;;;;;4838071;29;20064;-81
2023/12/28 06:54:16;;;;;;;8.52;2.55;;;10.50;99.90;;;;;;4837641;29;20578;-82
2023/12/28 06:56:42;;;;;;;11.32;4.13;;;10.40;99.90;;;;;;4837827;29;20050;-81
2023/12/28 06:59:12;;;;;;;12.57;2.83;;;10.50;99.90;;;;;;4836393;29;20132;-79
2023/12/28 07:01:41;;;;;;;9.68;3.15;;;10.40;99.90;;;;;;4837387;29;20061;-80
2023/12/28 07:04:06;;;;;;;8.30;2.63;;;10.40;99.90;;;;;;4854101;29;20061;-81
2023/12/28 07:06:32;;;;;;;15.18;2.78;;;10.40;99.90;;;;;;4837867;29;20046;-80
2023/12/28 07:08:58;;;;;;;14.35;2.75;;;10.50;99.90;;;;;;4836731;29;20046;-81
2023/12/28 07:11:23;;;;;;;12.68;2.85;;;10.50;99.90;;;;;;4833121;29;20138;-80
2023/12/28 07:13:49;;;;;;;12.43;2.60;;;10.60;99.90;;;;;;4837324;29;20067;-80
2023/12/28 07:16:15;;;;;;;10.02;2.88;;;10.60;99.90;;;;;;4844578;29;20054;-80
2023/12/28 07:18:41;;;;;;;11.50;2.80;;;10.60;99.90;;;;;;4827976;29;20048;-81
2023/12/28 07:21:10;;;;;;;12.95;2.85;;;10.60;99.90;;;;;;4836937;29;20694;-81
2023/12/28 07:23:36;;;;;;;14.20;3.22;;;10.60;99.90;;;;;;4836760;29;20053;-81
2023/12/28 07:26:03;;;;;;;11.73;3.13;;;11.10;99.90;;;;;;4832522;29;20042;-80
2023/12/28 07:28:28;;;;;;;11.85;3.05;;;10.70;99.90;;;;;;4836851;29;20524;-80
2023/12/28 07:30:54;;;;;;;15.55;3.20;;;10.70;99.90;;;;;;4837679;29;20045;-80
2023/12/28 07:33:20;;;;;;;10.27;2.85;;;10.70;99.90;;;;;;4822354;29;20513;-81
2023/12/28 07:35:46;;;;;;;9.25;3.10;;;10.70;99.90;;;;;;4837878;29;20470;-81
2023/12/28 07:38:12;;;;;;;11.85;3.45;;;10.80;99.90;;;;;;4837530;29;20726;-81
2023/12/28 07:40:37;;;;;;;18.58;2.97;;;10.80;99.90;;;;;;4837341;29;20054;-81
2023/12/28 07:43:03;;;;;;;13.55;3.85;;;10.80;99.90;;;;;;4836449;29;20046;-81
2023/12/28 07:45:29;;;;;;;24.52;3.80;;;10.80;99.90;;;;;;4837093;29;20054;-80
2023/12/28 07:47:55;;;;;;;10.65;3.13;;;10.80;99.90;;;;;;4836538;29;20057;-81
2023/12/28 07:50:21;;;;;;;16.38;3.38;;;10.80;99.90;;;;;;4835847;29;20136;-81
2023/12/28 07:52:47;;;;;;;13.05;2.72;;;10.80;99.90;;;;;;4836495;29;20061;-81
2023/12/28 07:55:13;;;;;;;10.10;2.65;;;11.00;99.90;;;;;;4837226;29;20467;-81
2023/12/28 07:57:40;;;;;;;12.75;3.17;;;10.80;99.90;;;;;;4837654;29;20112;-80
2023/12/28 08:00:06;;;;;;;10.45;3.15;;;10.80;99.90;;;;;;4826035;29;20133;-80
2023/12/28 08:02:31;;;;;;;12.55;2.65;;;10.80;99.90;;;;;;4834398;29;20065;-81
2023/12/28 08:04:57;;;;;;;12.02;3.08;;;10.80;99.90;;;;;;4837184;29;20054;-81
2023/12/28 08:07:25;;;;;;;15.85;3.47;;;10.80;99.90;;;;;;4835529;29;20041;-81
2023/12/28 08:09:51;;;;;;;14.80;3.63;;;10.70;99.90;;;;;;4852952;29;20497;-79
2023/12/28 08:12:17;;;;;;;17.58;4.63;;;10.80;99.90;;;;;;4836484;29;20057;-78
2023/12/28 08:14:43;;;;;;;16.90;3.72;;;10.80;99.90;;;;;;4838550;29;20054;-78
2023/12/28 08:17:09;;;;;;;13.75;3.20;;;10.80;99.90;;;;;;4836373;29;20126;-80
2023/12/28 08:19:36;;;;;;;13.50;2.80;;;10.80;99.90;;;;;;4837349;29;20050;-79
2023/12/28 08:22:02;;;;;;;11.95;3.45;;;10.80;99.90;;;;;;4824095;29;20046;-79
2023/12/28 08:24:28;;;;;;;12.85;3.40;;;10.80;99.90;;;;;;4835031;29;20061;-79
2023/12/28 08:26:58;;;;;;;11.75;2.83;;;10.70;99.90;;;;;;4837009;29;20057;-80
2023/12/28 08:29:23;;;;;;;15.50;3.22;;;10.70;99.90;;;;;;4837109;29;20085;-80
2023/12/28 08:31:49;;;;;;;17.88;3.95;;;10.70;99.90;;;;;;4835015;29;20092;-79
2023/12/28 08:34:15;;;;;;;17.10;3.38;;;10.80;99.90;;;;;;4840411;29;20085;-79
2023/12/28 08:36:41;;;;;;;13.90;2.97;;;10.80;99.90;;;;;;4849001;29;20092;-79
2023/12/28 08:39:07;;;;;;;18.60;3.72;;;10.80;99.90;;;;;;4832860;29;20060;-78
2023/12/28 08:41:32;;;;;;;15.05;3.40;;;10.80;99.90;;;;;;4836729;29;20046;-80
2023/12/28 08:43:58;;;;;;;17.83;3.00;;;10.80;99.90;;;;;;4836703;29;20148;-81
2023/12/28 08:46:26;;;;;;;12.68;2.97;;;10.80;99.90;;;;;;4836820;29;20065;-79
2023/12/28 08:48:52;;;;;;;14.98;3.22;;;10.70;99.90;;;;;;4835089;29;20050;-80
2023/12/28 08:51:18;;;;;;;21.52;3.78;;;10.80;99.90;;;;;;4836264;29;20068;-80
2023/12/28 08:53:43;;;;;;;15.77;3.40;;;11.30;99.90;;;;;;4836128;29;20471;-81
2023/12/28 08:56:22;;;;;;;13.45;3.08;;;10.80;99.90;;;;;;4832393;29;20057;-79
2023/12/28 08:58:48;;;;;;;15.63;3.10;;;10.80;99.90;;;;;;4816826;29;20051;-80
2023/12/28 09:01:18;;;;;;;17.77;2.92;;;10.90;99.90;;;;;;4818491;29;20106;-80
2023/12/28 09:03:44;;;;;;;18.55;4.15;;;10.90;99.90;;;;;;4817998;29;20153;-79
2023/12/28 09:06:10;;;;;;;17.65;3.38;;;10.80;99.90;;;;;;4819396;29;20062;-79
2023/12/28 09:08:35;;;;;;;16.38;3.70;;;11.60;99.90;;;;;;4834871;29;20050;-80
2023/12/28 09:11:01;;;;;;;11.38;3.13;;;10.80;99.90;;;;;;4818598;29;20077;-80
2023/12/28 09:13:27;;;;;;;17.73;3.28;;;10.80;99.90;;;;;;4819536;29;20055;-79
2023/12/28 09:15:52;;;;;;;20.55;3.25;;;10.80;99.90;;;;;;4818569;29;20526;-79
2023/12/28 09:18:18;;;;;;;15.65;3.83;;;10.90;99.90;;;;;;4818196;29;20073;-79
2023/12/28 09:20:53;;;;;;;16.65;3.40;;;10.90;99.90;;;;;;4818703;29;20090;-80
2023/12/28 09:23:18;;;;;;;15.43;3.92;;;10.90;99.90;;;;;;4817852;29;20557;-79
2023/12/28 09:25:58;;;;;;;13.85;3.25;;;10.90;99.90;;;;;;4820496;29;20054;-80
2023/12/28 09:28:23;;;;;;;15.82;2.55;;;11.00;99.90;;;;;;4836283;29;20066;-80
2023/12/28 09:30:49;;;;;;;16.75;2.90;;;10.90;99.90;;;;;;4836022;29;20050;-79
2023/12/28 09:33:16;;;;;;;17.05;3.42;;;10.90;99.90;;;;;;4837703;29;20062;-80
2023/12/28 09:35:42;;;;;;;16.45;3.55;;;10.90;99.90;;;;;;4821331;29;20145;-81
2023/12/28 09:38:08;;;;;;;16.63;3.45;;;10.90;99.90;;;;;;4835944;29;20157;-82
2023/12/28 09:40:36;;;;;;;12.13;3.05;;;11.00;99.90;;;;;;4835629;29;20394;-80
2023/12/28 09:43:24;;;;;;;15.82;3.30;;;11.00;99.90;;;;;;4835619;29;20057;-79
2023/12/28 09:45:50;;;;;;;20.27;4.55;;;11.00;99.90;;;;;;4835643;29;20069;-80
2023/12/28 09:48:17;;;;;;;14.52;3.58;;;11.00;99.90;;;;;;4838578;29;20049;-79
2023/12/28 09:50:54;;;;;;;15.75;3.42;;;11.40;99.90;;;;;;4841355;29;20061;-80
2023/12/28 09:53:22;;;;;;;17.58;3.83;;;11.00;99.90;;;;;;4839430;29;20057;-80
2023/12/28 09:55:51;;;;;;;15.90;3.50;;;11.00;99.90;;;;;;4839833;29;20058;-79
2023/12/28 09:58:18;;;;;;;14.43;3.40;;;11.10;99.90;;;;;;4839553;29;20144;-79
2023/12/28 10:00:45;;;;;;;10.02;3.00;;;11.00;99.90;;;;;;4838811;29;20041;-81
2023/12/28 10:03:12;;;;;;;14.23;3.33;;;11.10;99.90;;;;;;4838706;29;20081;-80
2023/12/28 10:05:41;;;;;;;18.60;4.68;;;11.10;99.90;;;;;;4838749;29;20054;-79
2023/12/28 10:08:06;;;;;;;12.10;3.10;;;11.10;99.90;;;;;;4838106;29;20065;-80
2023/12/28 10:10:32;;;;;;;21.90;3.88;;;11.10;99.90;;;;;;4837097;29;20054;-80
2023/12/28 10:12:57;;;;;;;19.70;3.20;;;11.10;99.90;;;;;;4840307;29;20050;-80
2023/12/28 10:15:25;;;;;;;18.85;3.78;;;11.10;99.90;;;;;;4839811;29;20100;-80
2023/12/28 10:17:54;;;;;;;14.65;3.00;;;11.10;99.90;;;;;;4839172;29;20049;-80
2023/12/28 10:20:20;;;;;;;13.18;3.15;;;11.10;99.90;;;;;;4837743;29;20566;-79
2023/12/28 10:22:47;;;;;;;17.83;3.88;;;11.20;99.90;;;;;;4837940;29;20054;-80
2023/12/28 10:25:12;;;;;;;15.93;2.90;;;11.90;99.90;;;;;;4838472;29;20046;-80
2023/12/28 10:27:42;;;;;;;12.35;3.13;;;11.20;99.90;;;;;;4840670;29;20568;-81
2023/12/28 10:30:09;;;;;;;13.57;3.13;;;11.20;99.90;;;;;;4837725;29;20068;-80
2023/12/28 10:32:36;;;;;;;17.25;3.70;;;11.20;99.90;;;;;;4838580;29;20082;-80
2023/12/28 10:35:02;;;;;;;13.45;3.20;;;11.20;99.90;;;;;;4838770;29;20134;-82
2023/12/28 10:37:31;;;;;;;11.80;3.00;;;11.20;99.90;;;;;;4838524;29;20104;-80
2023/12/28 10:39:59;;;;;;;16.50;2.63;;;11.20;99.90;;;;;;4838923;29;20114;-80
2023/12/28 10:42:44;;;;;;;15.82;3.30;;;11.20;99.90;;;;;;4854190;29;20089;-82
2023/12/28 10:45:10;;;;;;;18.45;3.47;;;11.30;99.90;;;;;;4838347;29;20049;-79
2023/12/28 10:47:42;;;;;;;14.02;3.20;;;11.30;99.90;;;;;;4837753;29;20152;-81
2023/12/28 10:50:10;;;;;;;15.90;3.58;;;12.40;99.90;;;;;;4838838;29;20056;-81
2023/12/28 10:52:38;;;;;;;15.27;3.85;;;11.20;99.90;;;;;;4823157;29;20046;-79
2023/12/28 10:55:33;;;;;;;13.15;2.85;;;11.20;99.90;;;;;;4823732;29;20053;-80
2023/12/28 10:58:14;;;;;;;15.02;3.30;;;11.20;99.90;;;;;;4835770;29;20049;-81
2023/12/28 11:00:46;;;;;;;16.27;3.25;;;11.20;99.90;;;;;;4825966;29;20050;-83
2023/12/28 11:03:15;;;;;;;;;;;11.30;99.90;;;;;;4836417;29;20046;-81
2023/12/28 11:05:43;;;;;;;14.32;3.13;;;11.30;99.90;;;;;;4842989;29;19940;-79
2023/12/28 11:08:11;;;;;;;14.90;2.95;;;11.30;99.90;;;;;;4837899;29;20131;-79
2023/12/28 11:10:42;;;;;;;17.23;3.25;;;11.20;99.90;;;;;;4837470;29;20528;-80
2023/12/28 11:13:09;;;;;;;15.63;3.38;;;11.70;99.90;;;;;;4828866;29;20046;-79
2023/12/28 11:15:36;;;;;;;23.33;3.92;;;11.20;99.90;;;;;;4828234;29;20141;-79
2023/12/28 11:18:02;;;;;;;17.77;3.33;;;11.10;99.90;;;;;;4824369;29;20062;-80
2023/12/28 11:20:29;;;;;;;14.07;3.53;;;11.10;99.90;;;;;;4838477;29;20092;-78
2023/12/28 11:22:56;;;;;;;17.50;4.40;;;11.10;99.90;;;;;;4826496;29;20053;-79
2023/12/28 11:25:22;;;;;;;12.85;3.58;;;11.10;99.90;;;;;;4835870;29;20068;-82
2023/12/28 11:27:48;;;;;;;16.48;3.13;;;11.10;99.90;;;;;;4811184;29;20053;-81
2023/12/28 11:30:14;;;;;;;14.27;3.33;;;11.10;99.90;;;;;;4837353;29;20060;-78
2023/12/28 11:32:43;;;;;;;16.20;3.30;;;11.10;99.90;;;;;;4838393;29;20407;-80
2023/12/28 11:35:12;;;;;;;14.27;3.10;;;11.20;99.90;;;;;;4836815;29;20164;-81
2023/12/28 11:37:42;;;;;;;13.77;2.88;;;11.20;99.90;;;;;;4837546;29;20121;-81
2023/12/28 11:40:14;;;;;;;15.05;3.55;;;11.10;99.90;;;;;;4838873;29;20057;-81
2023/12/28 11:42:51;;;;;;;10.68;2.53;;;11.20;99.90;;;;;;4834272;29;20495;-79
2023/12/28 11:45:22;;;;;;;13.40;2.67;;;11.20;99.90;;;;;;4852273;29;20164;-80
2023/12/28 11:47:59;;;;;;;11.65;2.50;;;11.20;99.90;;;;;;4838892;29;20615;-80
2023/12/28 11:50:25;;;;;;;14.82;3.20;;;11.30;99.90;;;;;;4853470;29;20050;-80
2023/12/28 11:52:51;;;;;;;13.07;3.08;;;11.30;99.90;;;;;;4836680;29;20106;-80
2023/12/28 11:55:23;;;;;;;16.27;3.72;;;11.30;99.90;;;;;;4837574;29;20405;-80
2023/12/28 11:57:49;;;;;;;;;;;11.20;99.90;;;;;;4824109;29;20055;-81
2023/12/28 12:00:17;;;;;;;16.65;3.55;;;11.20;99.90;;;;;;4822092;29;19985;-81
2023/12/28 12:02:46;;;;;;;16.55;3.92;;;11.20;99.90;;;;;;4840794;29;20106;-81
2023/12/28 12:05:12;;;;;;;14.57;3.45;;;11.20;99.90;;;;;;4839252;29;20041;-81
2023/12/28 12:07:38;;;;;;;18.33;3.00;;;11.60;99.90;;;;;;4845718;29;20196;-80
2023/12/28 12:10:04;;;;;;;13.05;3.45;;;11.20;99.90;;;;;;4836830;29;20054;-80
2023/12/28 12:12:30;;;;;;;12.85;3.15;;;11.20;99.90;;;;;;4838546;29;20042;-80
2023/12/28 12:14:57;;;;;;;16.30;4.03;;;11.20;99.90;;;;;;4833504;29;20060;-82
2023/12/28 12:17:22;;;;;;;16.05;3.33;;;11.20;99.90;;;;;;4818770;29;20099;-80
2023/12/28 12:19:50;;;;;;;14.02;3.38;;;12.20;99.90;;;;;;4818731;29;20054;-79
2023/12/28 12:22:17;;;;;;;14.50;3.25;;;11.20;99.90;;;;;;4833778;29;20057;-79
2023/12/28 12:24:46;;;;;;;15.75;4.03;;;11.20;99.90;;;;;;4831937;29;20077;-79
2023/12/28 12:27:12;;;;;;;16.90;3.10;;;11.20;99.90;;;;;;4836645;29;20053;-80
2023/12/28 12:29:38;;;;;;;16.45;3.65;;;11.20;99.90;;;;;;4837040;29;20042;-81
2023/12/28 12:32:04;;;;;;;18.73;3.75;;;11.20;99.90;;;;;;4836866;29;20086;-80
2023/12/28 12:34:29;;;;;;;17.83;3.35;;;11.20;99.90;;;;;;4838263;29;20061;-81
2023/12/28 12:36:58;;;;;;;18.75;4.53;;;11.20;99.90;;;;;;4836337;29;20535;-82
2023/12/28 12:39:24;;;;;;;16.75;4.03;;;11.30;99.90;;;;;;4835988;29;20057;-81
2023/12/28 12:41:50;;;;;;;20.42;3.60;;;11.20;99.90;;;;;;4837943;29;20114;-82